createdAt,value
2023-10-13T00:02:02.672Z,16.90
2023-10-13T00:04:30.407Z,16.90
2023-10-13T00:07:00.860Z,16.90
2023-10-13T00:09:33.424Z,16.90
2023-10-13T00:12:01.145Z,16.90
2023-10-13T00:14:34.541Z,16.80
2023-10-13T00:17:04.741Z,16.90
2023-10-13T00:19:39.350Z,16.80
2023-10-13T00:22:11.744Z,16.90
2023-10-13T00:24:46.653Z,16.90
2023-10-13T00:27:31.603Z,16.90
2023-10-13T00:30:18.858Z,16.90
2023-10-13T00:32:52.470Z,16.90
2023-10-13T00:35:37.458Z,16.90
2023-10-13T00:38:13.889Z,16.90
2023-10-13T00:40:43.220Z,16.90
2023-10-13T00:43:21.880Z,16.90
2023-10-13T00:46:07.174Z,16.80
2023-10-13T00:48:43.155Z,16.90
2023-10-13T00:51:19.908Z,16.90
2023-10-13T00:53:48.782Z,16.80
2023-10-13T00:56:28.134Z,16.90
2023-10-13T00:59:00.238Z,16.80
2023-10-13T01:01:33.613Z,16.80
2023-10-13T01:04:00.771Z,16.90
2023-10-13T01:06:30.857Z,16.80
2023-10-13T01:09:12.061Z,16.90
2023-10-13T01:11:40.153Z,16.90
2023-10-13T01:14:06.958Z,16.90
2023-10-13T01:16:33.763Z,16.90
2023-10-13T01:19:00.887Z,16.90
2023-10-13T01:21:28.824Z,16.90
2023-10-13T01:23:55.516Z,16.90
2023-10-13T01:26:25.433Z,16.80
2023-10-13T01:28:57.516Z,16.90
2023-10-13T01:31:32.121Z,16.90
2023-10-13T01:33:59.986Z,16.90
2023-10-13T01:36:36.543Z,16.90
2023-10-13T01:39:03.317Z,16.90
2023-10-13T01:41:32.111Z,16.90
2023-10-13T01:43:58.820Z,16.80
2023-10-13T01:46:25.523Z,16.90
2023-10-13T01:48:55.292Z,16.80
2023-10-13T01:51:24.230Z,16.80
2023-10-13T01:53:57.392Z,16.90
2023-10-13T01:56:25.734Z,16.90
2023-10-13T01:58:54.650Z,16.80
2023-10-13T02:01:30.543Z,16.80
2023-10-13T02:04:07.592Z,16.90
2023-10-13T02:06:37.172Z,16.90
2023-10-13T02:09:13.866Z,16.90
2023-10-13T02:11:42.768Z,16.90
2023-10-13T02:14:12.131Z,16.90
2023-10-13T02:16:40.337Z,16.80
2023-10-13T02:19:09.278Z,16.90
2023-10-13T02:21:40.389Z,16.90
2023-10-13T02:24:19.842Z,16.90
2023-10-13T02:26:46.927Z,16.80
2023-10-13T02:29:14.917Z,16.90
2023-10-13T02:31:43.361Z,16.90
2023-10-13T02:34:10.221Z,16.80
2023-10-13T02:36:37.769Z,16.90
2023-10-13T02:39:08.650Z,16.90
2023-10-13T02:41:39.402Z,16.90
2023-10-13T02:44:07.483Z,16.90
2023-10-13T02:46:40.825Z,16.90
2023-10-13T02:49:11.778Z,16.90
2023-10-13T02:51:43.037Z,16.90
2023-10-13T02:54:19.064Z,16.90
2023-10-13T02:56:58.701Z,16.90
2023-10-13T02:59:35.849Z,16.90
2023-10-13T03:02:14.309Z,16.90
2023-10-13T03:04:41.127Z,16.90
2023-10-13T03:07:07.872Z,16.90
2023-10-13T03:09:38.576Z,16.90
2023-10-13T03:12:05.766Z,16.90
2023-10-13T03:14:32.996Z,16.90
2023-10-13T03:17:10.171Z,16.90
2023-10-13T03:19:40.160Z,16.90
2023-10-13T03:22:12.601Z,16.90
2023-10-13T03:24:47.835Z,16.90
2023-10-13T03:27:24.052Z,17.00
2023-10-13T03:29:57.257Z,17.00
2023-10-13T03:32:27.662Z,17.00
2023-10-13T03:35:00.884Z,17.00
2023-10-13T03:37:39.358Z,17.10
2023-10-13T03:40:34.794Z,17.10
2023-10-13T03:43:05.689Z,17.00
2023-10-13T03:45:41.029Z,17.00
2023-10-13T03:48:29.564Z,17.00
2023-10-13T03:51:04.996Z,17.00
2023-10-13T03:53:35.100Z,17.00
2023-10-13T03:56:09.240Z,17.10
2023-10-13T03:58:37.957Z,17.10
2023-10-13T04:01:04.728Z,17.10
2023-10-13T04:03:36.665Z,17.10
2023-10-13T04:06:17.107Z,17.10
2023-10-13T04:08:43.774Z,17.10
2023-10-13T04:11:29.206Z,17.10
2023-10-13T04:14:15.828Z,17.10
2023-10-13T04:16:55.665Z,17.10
2023-10-13T04:19:27.180Z,17.20
2023-10-13T04:21:58.944Z,17.20
2023-10-13T04:24:36.324Z,17.10
2023-10-13T04:27:15.242Z,17.10
2023-10-13T04:30:00.999Z,17.20
2023-10-13T04:32:31.501Z,17.20
2023-10-13T04:35:20.226Z,17.20
2023-10-13T04:38:01.825Z,17.20
2023-10-13T04:40:36.258Z,17.20
2023-10-13T04:43:18.395Z,17.20
2023-10-13T04:45:55.733Z,17.20
2023-10-13T04:48:22.588Z,17.20
2023-10-13T04:50:59.745Z,17.20
2023-10-13T04:53:34.102Z,17.20
2023-10-13T04:56:04.432Z,17.20
2023-10-13T04:58:34.407Z,17.30
2023-10-13T05:01:24.675Z,17.30
2023-10-13T05:04:09.910Z,17.30
2023-10-13T05:06:56.725Z,17.30
2023-10-13T05:09:41.995Z,17.30
2023-10-13T05:12:27.521Z,17.30
2023-10-13T05:15:12.969Z,17.30
2023-10-13T05:17:58.483Z,17.30
2023-10-13T05:20:45.607Z,17.30
2023-10-13T05:23:31.095Z,17.40
2023-10-13T05:26:21.050Z,17.40
2023-10-13T05:29:15.230Z,17.30
2023-10-13T05:32:11.721Z,17.40
2023-10-13T05:34:57.079Z,17.40
2023-10-13T05:37:42.707Z,17.40
2023-10-13T05:40:28.553Z,17.30
2023-10-13T05:43:13.996Z,17.40
2023-10-13T05:45:59.475Z,17.40
2023-10-13T05:48:43.634Z,17.40
2023-10-13T05:51:29.035Z,17.50
2023-10-13T05:54:14.020Z,17.50
2023-10-13T05:56:59.972Z,17.50
2023-10-13T05:59:46.054Z,17.50
2023-10-13T06:02:32.217Z,17.50
2023-10-13T06:05:17.623Z,17.40
2023-10-13T06:08:02.737Z,17.50
2023-10-13T06:10:47.856Z,17.50
2023-10-13T06:13:33.536Z,17.50
2023-10-13T06:16:19.001Z,17.50
2023-10-13T06:19:04.249Z,17.50
2023-10-13T06:21:57.354Z,17.50
2023-10-13T06:24:42.904Z,17.60
2023-10-13T06:27:28.258Z,17.50
2023-10-13T06:29:55.260Z,17.60
2023-10-13T06:32:26.982Z,17.60
2023-10-13T06:34:58.704Z,17.60
2023-10-13T06:37:29.017Z,17.60
2023-10-13T06:40:08.694Z,17.60
2023-10-13T06:42:35.571Z,17.60
2023-10-13T06:45:12.898Z,17.60
2023-10-13T06:47:44.377Z,17.50
2023-10-13T06:50:16.685Z,17.60
2023-10-13T06:52:44.418Z,17.60
2023-10-13T06:55:18.050Z,17.60
2023-10-13T06:57:45.289Z,17.60
2023-10-13T07:00:28.103Z,17.60
2023-10-13T07:02:55.056Z,17.60
2023-10-13T07:05:22.811Z,17.70
2023-10-13T07:07:58.745Z,17.60
2023-10-13T07:10:31.043Z,17.60
2023-10-13T07:13:01.240Z,17.70
2023-10-13T07:15:28.660Z,17.60
2023-10-13T07:18:00.492Z,17.60
2023-10-13T07:20:30.167Z,17.60
2023-10-13T07:23:04.141Z,17.60
2023-10-13T07:25:33.850Z,17.60
2023-10-13T07:28:01.515Z,17.60
2023-10-13T07:30:29.069Z,17.50
2023-10-13T07:33:00.370Z,17.50
2023-10-13T07:35:27.218Z,17.50
2023-10-13T07:37:54.588Z,17.50
2023-10-13T07:40:28.400Z,17.50
2023-10-13T07:43:02.168Z,17.60
2023-10-13T07:45:37.296Z,17.60
2023-10-13T07:48:14.187Z,17.50
2023-10-13T07:50:41.515Z,17.50
2023-10-13T07:53:21.337Z,17.50
2023-10-13T07:55:48.210Z,17.60
2023-10-13T07:58:15.029Z,17.60
2023-10-13T08:00:44.404Z,17.60
2023-10-13T08:03:31.046Z,17.50
2023-10-13T08:06:07.603Z,17.50
2023-10-13T08:08:40.980Z,17.60
2023-10-13T08:11:24.384Z,17.60
2023-10-13T08:14:04.322Z,17.50
2023-10-13T08:16:47.808Z,17.50
2023-10-13T08:19:19.362Z,17.50
2023-10-13T08:21:53.014Z,17.50
2023-10-13T08:24:28.868Z,17.50
2023-10-13T08:26:58.058Z,17.60
2023-10-13T08:29:31.691Z,17.60
2023-10-13T08:32:07.583Z,17.50
2023-10-13T08:34:44.567Z,17.60
2023-10-13T08:37:23.874Z,17.60
2023-10-13T08:40:24.163Z,17.50
2023-10-13T08:43:04.939Z,17.50
2023-10-13T08:45:32.674Z,17.60
2023-10-13T08:48:14.192Z,17.60
2023-10-13T08:50:49.818Z,17.50
2023-10-13T08:53:32.200Z,17.50
2023-10-13T08:56:05.907Z,17.50
2023-10-13T08:58:53.144Z,17.40
2023-10-13T09:01:49.957Z,17.40
2023-10-13T09:04:24.245Z,17.50
2023-10-13T09:07:08.490Z,17.40
2023-10-13T09:09:47.802Z,17.50
2023-10-13T09:12:15.696Z,17.50
2023-10-13T09:14:48.517Z,17.40
2023-10-13T09:17:21.486Z,17.50
2023-10-13T09:19:49.676Z,17.50
2023-10-13T09:22:37.396Z,17.50
2023-10-13T09:25:07.698Z,17.50
2023-10-13T09:27:38.726Z,17.60
2023-10-13T09:30:25.390Z,17.50
2023-10-13T09:33:16.531Z,17.60
2023-10-13T09:35:51.007Z,17.70
2023-10-13T09:38:18.199Z,17.70
2023-10-13T09:40:51.821Z,17.60
2023-10-13T09:43:19.487Z,17.60
2023-10-13T09:46:16.425Z,17.70
2023-10-13T09:49:05.159Z,17.60
2023-10-13T09:51:35.216Z,17.60
2023-10-13T09:54:32.792Z,17.60
2023-10-13T09:57:11.119Z,17.60
2023-10-13T09:59:57.590Z,17.60
2023-10-13T10:02:27.666Z,17.70
2023-10-13T10:05:13.864Z,17.70
2023-10-13T10:07:40.959Z,17.70
2023-10-13T10:10:09.822Z,17.70
2023-10-13T10:13:03.892Z,17.70
2023-10-13T10:15:37.015Z,17.70
2023-10-13T10:18:04.987Z,17.70
2023-10-13T10:20:43.925Z,17.70
2023-10-13T10:23:22.275Z,17.70
2023-10-13T10:25:52.457Z,17.80
2023-10-13T10:28:20.910Z,17.70
2023-10-13T10:30:47.756Z,17.70
2023-10-13T10:33:19.393Z,17.70
2023-10-13T10:35:47.468Z,17.80
2023-10-13T10:38:25.424Z,17.70
2023-10-13T10:41:04.882Z,17.80
2023-10-13T10:43:44.682Z,17.70
2023-10-13T10:46:19.318Z,17.80
2023-10-13T10:48:46.680Z,17.80
2023-10-13T10:51:25.468Z,17.80
2023-10-13T10:53:55.059Z,17.80
2023-10-13T10:56:37.759Z,17.80
2023-10-13T10:59:08.056Z,17.90
2023-10-13T11:01:35.239Z,17.90
2023-10-13T11:04:18.687Z,17.90
2023-10-13T11:06:56.344Z,17.90
2023-10-13T11:09:33.532Z,18.00
2023-10-13T11:12:24.450Z,18.00
2023-10-13T11:15:37.501Z,18.00
2023-10-13T11:18:06.856Z,18.00
2023-10-13T11:20:44.462Z,18.00
2023-10-13T11:23:16.322Z,18.00
2023-10-13T11:25:46.263Z,18.10
2023-10-13T11:28:34.944Z,18.10
2023-10-13T11:31:11.683Z,18.10
2023-10-13T11:33:47.639Z,18.20
2023-10-13T11:36:18.843Z,18.30
2023-10-13T11:38:48.382Z,18.30
2023-10-13T11:41:22.487Z,18.30
2023-10-13T11:43:54.591Z,18.30
2023-10-13T11:46:39.181Z,18.40
2023-10-13T11:49:16.529Z,18.40
2023-10-13T11:51:47.019Z,18.40
2023-10-13T11:54:19.086Z,18.50
2023-10-13T11:56:50.405Z,18.50
2023-10-13T11:59:25.150Z,18.40
2023-10-13T12:02:11.231Z,18.50
2023-10-13T12:04:44.784Z,18.40
2023-10-13T12:07:12.974Z,18.50
2023-10-13T12:09:52.505Z,18.50
2023-10-13T12:12:19.999Z,18.60
2023-10-13T12:14:56.306Z,18.60
2023-10-13T12:17:37.803Z,18.60
2023-10-13T12:20:12.284Z,18.60
2023-10-13T12:22:40.428Z,18.60
2023-10-13T12:25:25.979Z,18.60
2023-10-13T12:27:59.053Z,18.60
2023-10-13T12:30:45.107Z,18.60
2023-10-13T12:33:11.914Z,18.70
2023-10-13T12:36:04.883Z,18.70
2023-10-13T12:38:58.391Z,18.70
2023-10-13T12:41:43.645Z,18.70
2023-10-13T12:44:29.193Z,18.70
2023-10-13T12:47:14.869Z,18.70
2023-10-13T12:49:45.193Z,18.70
2023-10-13T12:52:26.376Z,18.70
2023-10-13T12:55:07.780Z,18.70
2023-10-13T12:57:35.442Z,18.80
2023-10-13T13:00:17.416Z,18.80
2023-10-13T13:02:44.535Z,18.80
2023-10-13T13:05:14.269Z,18.80
2023-10-13T13:07:48.127Z,18.80
2023-10-13T13:10:18.210Z,18.80
2023-10-13T13:12:45.129Z,18.80
2023-10-13T13:15:13.045Z,18.70
2023-10-13T13:17:40.701Z,18.90
2023-10-13T13:20:28.245Z,18.80
2023-10-13T13:22:56.345Z,18.80
2023-10-13T13:25:31.496Z,18.80
2023-10-13T13:27:59.144Z,18.80
2023-10-13T13:30:32.034Z,19.00
2023-10-13T13:33:04.832Z,19.00
2023-10-13T13:35:35.868Z,18.90
2023-10-13T13:38:26.598Z,18.90
2023-10-13T13:40:55.275Z,18.90
2023-10-13T13:43:41.865Z,19.10
2023-10-13T13:46:12.228Z,19.20
2023-10-13T13:48:42.259Z,19.30
2023-10-13T13:51:16.470Z,19.30
2023-10-13T13:53:46.132Z,19.20
2023-10-13T13:56:17.165Z,19.10
2023-10-13T13:58:45.261Z,19.10
2023-10-13T14:01:22.759Z,19.10
2023-10-13T14:03:57.520Z,19.10
2023-10-13T14:06:26.192Z,19.20
2023-10-13T14:08:57.441Z,19.30
2023-10-13T14:11:41.005Z,19.30
2023-10-13T14:14:13.126Z,19.20
2023-10-13T14:16:45.614Z,19.10
2023-10-13T14:19:13.172Z,19.10
2023-10-13T14:21:39.957Z,19.00
2023-10-13T14:24:15.623Z,19.00
2023-10-13T14:26:44.569Z,19.10
2023-10-13T14:29:15.141Z,19.10
2023-10-13T14:31:42.648Z,19.10
2023-10-13T14:34:09.614Z,19.10
2023-10-13T14:36:36.301Z,19.10
2023-10-13T14:39:05.628Z,19.10
2023-10-13T14:41:32.729Z,19.00
2023-10-13T14:44:06.287Z,19.00
2023-10-13T14:46:37.128Z,18.90
2023-10-13T14:49:04.036Z,19.00
2023-10-13T14:51:30.869Z,18.90
2023-10-13T14:53:57.617Z,18.90
2023-10-13T14:56:27.653Z,18.80
2023-10-13T14:58:55.337Z,18.90
2023-10-13T15:01:25.658Z,18.90
2023-10-13T15:03:59.190Z,18.90
2023-10-13T15:06:30.973Z,18.90
2023-10-13T15:09:00.119Z,18.90
2023-10-13T15:11:29.579Z,18.90
2023-10-13T15:13:57.411Z,19.00
2023-10-13T15:16:27.863Z,19.00
2023-10-13T15:18:55.194Z,18.90
2023-10-13T15:21:23.968Z,19.00
2023-10-13T15:23:52.574Z,19.10
2023-10-13T15:26:22.141Z,19.10
2023-10-13T15:28:56.862Z,19.20
2023-10-13T15:31:24.191Z,19.10
2023-10-13T15:33:58.185Z,19.10
2023-10-13T15:36:25.312Z,19.20
2023-10-13T15:38:55.324Z,19.30
2023-10-13T15:41:28.101Z,19.40
2023-10-13T15:43:55.931Z,19.40
2023-10-13T15:47:35.705Z,19.50
2023-10-13T15:49:15.244Z,19.40
2023-10-13T15:51:42.863Z,19.30
2023-10-13T15:54:18.046Z,19.20
2023-10-13T15:56:47.250Z,19.20
2023-10-13T15:59:14.123Z,19.30
2023-10-13T16:01:41.992Z,19.40
2023-10-13T16:04:12.251Z,19.50
2023-10-13T16:06:40.392Z,19.50
2023-10-13T16:09:15.024Z,19.40
2023-10-13T16:11:46.835Z,19.50
2023-10-13T16:14:18.532Z,19.50
2023-10-13T16:16:47.755Z,19.50
2023-10-13T16:19:22.502Z,19.50
2023-10-13T16:21:53.556Z,19.50
2023-10-13T16:24:21.646Z,19.50
2023-10-13T16:26:50.594Z,19.50
2023-10-13T16:29:17.974Z,19.40
2023-10-13T16:31:47.849Z,19.30
2023-10-13T16:34:18.883Z,19.40
2023-10-13T16:36:47.131Z,19.30
2023-10-13T16:39:16.030Z,19.30
2023-10-13T16:41:46.107Z,19.30
2023-10-13T16:44:13.123Z,19.20
2023-10-13T16:46:42.606Z,19.20
2023-10-13T16:49:09.718Z,19.20
2023-10-13T16:51:37.287Z,19.10
2023-10-13T16:54:04.460Z,19.10
2023-10-13T16:56:31.230Z,19.10
2023-10-13T16:58:58.105Z,19.10
2023-10-13T17:01:25.065Z,19.10
2023-10-13T17:03:52.171Z,19.00
2023-10-13T17:06:19.240Z,19.10
2023-10-13T17:08:46.107Z,19.00
2023-10-13T17:11:14.826Z,19.00
2023-10-13T17:13:44.726Z,19.00
2023-10-13T17:16:18.460Z,19.00
2023-10-13T17:18:50.376Z,18.90
2023-10-13T17:21:35.046Z,18.90
2023-10-13T17:24:02.553Z,18.90
2023-10-13T17:26:29.603Z,18.90
2023-10-13T17:28:59.604Z,18.90
2023-10-13T17:31:32.891Z,18.90
2023-10-13T17:34:00.254Z,18.90
2023-10-13T17:36:29.559Z,18.90
2023-10-13T17:38:57.003Z,18.90
2023-10-13T17:41:26.531Z,18.90
2023-10-13T17:43:53.948Z,18.90
2023-10-13T17:46:22.646Z,18.90
2023-10-13T17:48:49.918Z,18.80
2023-10-13T17:51:16.782Z,18.90
2023-10-13T17:53:43.559Z,18.90
2023-10-13T17:56:16.925Z,18.90
2023-10-13T17:58:44.861Z,18.90
2023-10-13T18:01:18.312Z,18.90
2023-10-13T18:03:50.227Z,18.90
2023-10-13T18:06:18.817Z,18.90
2023-10-13T18:08:45.636Z,18.90
2023-10-13T18:11:13.845Z,19.00
2023-10-13T18:13:42.922Z,18.90
2023-10-13T18:16:17.184Z,18.90
2023-10-13T18:18:44.591Z,18.90
2023-10-13T18:21:13.194Z,19.00
2023-10-13T18:23:44.020Z,19.00
2023-10-13T18:26:13.148Z,18.90
2023-10-13T18:28:45.961Z,19.00
2023-10-13T18:31:13.349Z,19.00
2023-10-13T18:33:42.178Z,19.00
2023-10-13T18:36:13.756Z,19.00
2023-10-13T18:38:41.599Z,19.00
2023-10-13T18:41:08.961Z,19.00
2023-10-13T18:43:39.470Z,19.00
2023-10-13T18:46:07.925Z,19.00
2023-10-13T18:48:35.770Z,19.00
2023-10-13T18:51:07.273Z,19.00
2023-10-13T18:53:41.612Z,19.00
2023-10-13T18:56:13.330Z,18.90
2023-10-13T18:58:42.670Z,18.90
2023-10-13T19:01:14.319Z,18.90
2023-10-13T19:03:42.230Z,18.90
2023-10-13T19:06:16.379Z,18.90
2023-10-13T19:08:43.492Z,18.90
2023-10-13T19:11:12.442Z,18.90
2023-10-13T19:13:40.620Z,18.90
2023-10-13T19:16:16.441Z,18.90
2023-10-13T19:18:47.430Z,18.90
2023-10-13T19:21:19.191Z,18.90
2023-10-13T19:23:51.366Z,18.90
2023-10-13T19:26:23.337Z,18.80
2023-10-13T19:28:54.650Z,18.80
2023-10-13T19:31:27.512Z,18.80
2023-10-13T19:33:57.523Z,18.80
2023-10-13T19:36:24.996Z,18.80
2023-10-13T19:38:53.009Z,18.80
2023-10-13T19:41:27.194Z,18.80
2023-10-13T19:44:00.844Z,18.80
2023-10-13T19:46:28.776Z,18.80
2023-10-13T19:48:57.914Z,18.90
2023-10-13T19:51:27.330Z,18.80
2023-10-13T19:53:56.963Z,18.80
2023-10-13T19:56:23.999Z,18.80
2023-10-13T19:58:54.261Z,18.90
2023-10-13T20:01:25.440Z,18.90
2023-10-13T20:03:56.853Z,18.90
2023-10-13T20:06:28.481Z,19.00
2023-10-13T20:08:58.704Z,19.00
2023-10-13T20:11:29.772Z,19.10
2023-10-13T20:13:59.266Z,19.10
2023-10-13T20:16:26.611Z,19.00
2023-10-13T20:19:00.139Z,19.00
2023-10-13T20:21:29.762Z,19.00
2023-10-13T20:24:05.985Z,19.10
2023-10-13T20:26:46.589Z,19.00
2023-10-13T20:29:17.999Z,19.00
2023-10-13T20:31:50.053Z,18.90
2023-10-13T20:34:20.487Z,18.90
2023-10-13T20:36:47.728Z,18.80
2023-10-13T20:39:31.484Z,18.90
2023-10-13T20:42:05.288Z,18.80
2023-10-13T20:44:39.509Z,18.70
2023-10-13T20:47:07.832Z,18.70
2023-10-13T20:49:34.893Z,18.70
2023-10-13T20:52:06.219Z,18.70
2023-10-13T20:54:42.168Z,18.60
2023-10-13T20:57:09.629Z,18.60
2023-10-13T20:59:44.575Z,18.60
2023-10-13T21:02:12.692Z,18.60
2023-10-13T21:04:39.597Z,18.50
2023-10-13T21:07:08.492Z,18.50
2023-10-13T21:09:37.557Z,18.50
2023-10-13T21:12:07.187Z,18.40
2023-10-13T21:14:36.875Z,18.50
2023-10-13T21:17:05.387Z,18.40
2023-10-13T21:19:33.284Z,18.40
2023-10-13T21:22:00.058Z,18.30
2023-10-13T21:24:26.848Z,18.30
2023-10-13T21:26:53.616Z,18.30
2023-10-13T21:29:20.437Z,18.30
2023-10-13T21:31:48.679Z,18.30
2023-10-13T21:34:16.176Z,18.30
2023-10-13T21:36:43.364Z,18.30
2023-10-13T21:39:11.742Z,18.30
2023-10-13T21:41:39.029Z,18.20
2023-10-13T21:44:07.161Z,18.20
2023-10-13T21:46:35.973Z,18.30
2023-10-13T21:49:06.721Z,18.40
2023-10-13T21:51:35.772Z,18.40
2023-10-13T21:54:02.581Z,18.40
2023-10-13T21:56:29.729Z,18.30
2023-10-13T21:59:00.083Z,18.30
2023-10-13T22:01:30.431Z,18.40
2023-10-13T22:04:13.697Z,18.40
2023-10-13T22:06:58.222Z,18.30
2023-10-13T22:09:28.257Z,18.30
2023-10-13T22:11:56.184Z,18.30
2023-10-13T22:14:29.428Z,18.30
2023-10-13T22:16:58.289Z,18.40
2023-10-13T22:19:30.577Z,18.30
2023-10-13T22:21:57.344Z,18.40
2023-10-13T22:24:25.439Z,18.40
2023-10-13T22:26:52.250Z,18.40
2023-10-13T22:29:19.877Z,18.30
2023-10-13T22:31:49.130Z,18.30
2023-10-13T22:34:21.289Z,18.30
2023-10-13T22:37:02.945Z,18.30
2023-10-13T22:39:34.652Z,18.30
2023-10-13T22:42:02.110Z,18.30
2023-10-13T22:44:29.078Z,18.40
2023-10-13T22:46:55.805Z,18.30
2023-10-13T22:49:25.785Z,18.40
2023-10-13T22:51:53.053Z,18.30
2023-10-13T22:54:22.150Z,18.30
2023-10-13T22:56:50.830Z,18.30
2023-10-13T22:59:17.582Z,18.40
2023-10-13T23:01:44.417Z,18.40
2023-10-13T23:04:17.496Z,18.30
2023-10-13T23:06:50.739Z,18.40
2023-10-13T23:09:25.662Z,18.40
2023-10-13T23:11:57.330Z,18.40
2023-10-13T23:14:29.056Z,18.40
2023-10-13T23:16:55.909Z,18.50
2023-10-13T23:19:25.914Z,18.40
2023-10-13T23:21:52.775Z,18.30
2023-10-13T23:24:19.478Z,18.10
2023-10-13T23:26:46.280Z,18.10
2023-10-13T23:29:13.306Z,18.20
2023-10-13T23:31:40.179Z,18.10
2023-10-13T23:34:07.109Z,18.10
2023-10-13T23:36:33.892Z,18.10
2023-10-13T23:39:12.907Z,18.00
2023-10-13T23:41:43.069Z,18.00
2023-10-13T23:44:18.453Z,17.90
2023-10-13T23:46:47.228Z,18.00
2023-10-13T23:49:19.208Z,18.10
2023-10-13T23:52:02.434Z,18.10
2023-10-13T23:54:39.613Z,18.10
2023-10-13T23:57:06.912Z,18.00
2023-10-13T23:59:43.315Z,18.00
